Flight Track Log - Related Links

Times and Time Zones

All times are in EST time to prevent confusion due to time zone crossing. See the N354LQ flight status page for this flight to view local times or setup timezone preferences in your user account.

Time Position Orientation Groundspeed Altitude Reporting Facility
EST Latitude Longitude Course Direction KTS MPH feet Rate Location/Type
Wed 12:14:33 PM 33.0000 -97.3167 348° North 154 177 1,900  Level Dallas / Fort Worth TRACON
Wed 12:15:40 PM 33.0667 -97.3333 348° North 214 246 5,400 3,260 Climbing Dallas / Fort Worth TRACON
Wed 12:16:40 PM 33.1333 -97.3333 360° North 258 297 8,800 3,196 Climbing Dallas / Fort Worth TRACON
Wed 12:18:59 PM 33.2439 -97.1503 41° Northeast 306 352 16,000 3,164 Climbing Fort Worth Center
Wed 12:20:01 PM 33.2919 -97.0722 54° Northeast 292 336 19,400 2,952 Climbing Fort Worth Center
Wed 12:21:03 PM 33.3464 -96.9875 52° Northeast 299 344 22,100 1,742 Climbing Fort Worth Center
Wed 12:22:05 PM 33.4039 -96.8969 53° Northeast 337 388 23,000 1,161 Climbing Fort Worth Center
Wed 12:23:07 PM 33.4706 -96.8119 47° Northeast 380 437 24,500 1,790 Climbing Fort Worth Center
Wed 12:24:09 PM 33.5539 -96.7453 34° Northeast 363 418 26,700 2,565 Climbing Fort Worth Center
Wed 12:25:11 PM 33.6561 -96.6844 26° Northeast 347 399 29,800 2,371 Climbing Fort Worth Center
Wed 12:26:13 PM 33.7378 -96.6325 28° Northeast 338 389 31,600 1,488 Climbing Fort Worth Center
Wed 12:27:16 PM 33.8231 -96.5825 26° Northeast 341 392 32,900 1,248 Climbing Fort Worth Center
Wed 12:28:18 PM 33.9128 -96.5247 28° Northeast 359 413 34,200 1,210 Climbing Fort Worth Center
Wed 12:29:20 PM 34.0028 -96.4664 28° Northeast 366 421 35,400 1,210 Climbing Fort Worth Center
Wed 12:30:22 PM 34.1097 -96.3939 29° Northeast 368 423 36,700 1,065 Climbing Fort Worth Center
Wed 12:31:24 PM 34.1914 -96.3147 39° Northeast 380 437 37,600 726 Climbing Fort Worth Center
Wed 12:32:26 PM 34.2822 -96.2497 31° Northeast 381 438 38,200 629 Climbing Fort Worth Center
Wed 12:33:28 PM 34.3692 -96.1703 37° Northeast 390 449 38,900 677 Climbing Fort Worth Center
Wed 12:34:30 PM 34.4636 -96.0994 32° Northeast 399 459 39,600 677 Climbing Fort Worth Center
Wed 12:35:32 PM 34.5556 -96.0294 32° Northeast 394 453 40,300 532 Climbing Fort Worth Center
Wed 12:36:34 PM 34.6617 -95.9353 36° Northeast 396 456 40,700 387 Climbing Fort Worth Center
Wed 12:37:36 PM 34.7533 -95.8606 34° Northeast 397 457 41,100 145 Climbing Fort Worth Center
Wed 12:38:38 PM 34.8453 -95.7897 32° Northeast 394 453 41,000 -48 Descending Fort Worth Center
Wed 12:39:41 PM 34.9311 -95.7017 40° Northeast 414 476 41,000  Level Fort Worth Center
Wed 12:40:43 PM 35.0122 -95.5994 46° Northeast 419 482 41,000 48 Level Fort Worth Center
Wed 12:41:45 PM 35.1094 -95.4725 47° Northeast 423 487 41,100  Climbing Fort Worth Center
Wed 12:42:47 PM 35.1969 -95.3822 40° Northeast 415 478 41,000 -51 Descending Fort Worth Center
Wed 12:43:43 PM 35.2797 -95.2839 44° Northeast 413 475 41,000  Level Memphis Center
Wed 12:44:45 PM 35.3653 -95.1883 42° Northeast 419 482 41,000 49 Level Memphis Center
Wed 12:45:46 PM 35.4506 -95.0933 42° Northeast 413 475 41,100  Climbing Memphis Center
Wed 12:46:47 PM 35.5375 -95.0000 41° Northeast 416 479 41,000 -46 Descending Memphis Center
Wed 12:47:57 PM 35.6386 -94.8803 44° Northeast 418 481 41,000  Level Kansas City Center
Wed 12:48:50 PM 35.7069 -94.8058 41° Northeast 417 480 41,000  Level Memphis Center
Wed 12:49:51 PM 35.7900 -94.7067 44° Northeast 416 479 41,000  Level Memphis Center
Wed 12:50:53 PM 35.8761 -94.6089 43° Northeast 420 483 41,000  Level Memphis Center
Wed 12:51:54 PM 35.9594 -94.5106 44° Northeast 418 481 41,000  Level Memphis Center
Wed 12:52:55 PM 36.0625 -94.3894 44° Northeast 423 487 41,000  Level Memphis Center
Wed 12:53:57 PM 36.1494 -94.2883 43° Northeast 427 491 41,000  Level Memphis Center
Wed 12:54:58 PM 36.2350 -94.1883 43° Northeast 425 489 41,000  Level Memphis Center
Wed 12:55:59 PM 36.3214 -94.0869 43° Northeast 427 491 41,000 49 Level Memphis Center
Wed 12:57:01 PM 36.4061 -93.9831 45° Northeast 428 493 41,100  Climbing Memphis Center
Wed 12:58:02 PM 36.4936 -93.8822 43° Northeast 428 493 41,000 -49 Descending Memphis Center
Wed 12:59:03 PM 36.5803 -93.7786 44° Northeast 431 496 41,000  Level Memphis Center
Wed 01:00:22 PM 36.7019 -93.6303 44° Northeast 433 498 41,000  Level Kansas City Center
Wed 01:01:24 PM 36.7906 -93.5269 43° Northeast 434 499 41,000  Level Kansas City Center
Wed 01:02:26 PM 36.8828 -93.4136 44° Northeast 434 499 41,000  Level Kansas City Center
Wed 01:03:28 PM 36.9706 -93.3075 44° Northeast 437 503 41,000 48 Level Kansas City Center
Wed 01:04:30 PM 37.0581 -93.2033 44° Northeast 431 496 41,100  Climbing Kansas City Center
Wed 01:05:32 PM 37.1444 -93.0967 45° Northeast 434 499 41,000 -48 Descending Kansas City Center
Wed 01:06:34 PM 37.2319 -92.9922 44° Northeast 433 498 41,000  Level Kansas City Center
Wed 01:07:36 PM 37.3181 -92.8831 45° Northeast 437 503 41,000  Level Kansas City Center
Wed 01:08:38 PM 37.4231 -92.7542 44° Northeast 439 505 41,000  Level Kansas City Center
Wed 01:09:40 PM 37.5103 -92.6456 45° Northeast 440 506 41,000  Level Kansas City Center
Wed 01:10:42 PM 37.5961 -92.5372 45° Northeast 438 504 41,000  Level Kansas City Center
Wed 01:11:44 PM 37.6792 -92.4364 44° Northeast 440 506 41,000  Level Kansas City Center
Wed 01:12:46 PM 37.7653 -92.3258 45° Northeast 443 510 41,000  Level Kansas City Center
Wed 01:13:48 PM 37.8533 -92.2181 44° Northeast 447 514 41,000  Level Kansas City Center
Wed 01:14:50 PM 37.9567 -92.0825 46° Northeast 449 517 41,000  Level Kansas City Center
Wed 01:15:52 PM 38.0461 -91.9767 43° Northeast 442 509 41,000 48 Level Kansas City Center
Wed 01:16:54 PM 38.1325 -91.8653 45° Northeast 441 507 41,100  Climbing Kansas City Center
Wed 01:17:56 PM 38.2208 -91.7544 45° Northeast 443 510 41,000 -48 Descending Kansas City Center
Wed 01:18:58 PM 38.3094 -91.6428 45° Northeast 445 512 41,000  Level Kansas City Center
Wed 01:20:00 PM 38.4111 -91.5050 47° Northeast 445 512 41,000 48 Level Kansas City Center
Wed 01:21:03 PM 38.4992 -91.3942 45° Northeast 444 511 41,100  Climbing Kansas City Center
Wed 01:22:05 PM 38.5869 -91.2803 45° Northeast 454 522 41,000 -48 Descending Kansas City Center
Wed 01:23:07 PM 38.6764 -91.1675 45° Northeast 454 522 41,000  Level Kansas City Center
Wed 01:24:09 PM 38.7639 -91.0517 46° Northeast 452 520 41,000  Level Kansas City Center
Wed 01:25:11 PM 38.8528 -90.9372 45° Northeast 451 519 41,000  Level Kansas City Center
Wed 01:26:13 PM 38.9417 -90.8194 46° Northeast 453 521 41,000  Level Kansas City Center
Wed 01:27:15 PM 39.0300 -90.7011 46° Northeast 454 522 41,000 48 Level Kansas City Center
Wed 01:28:17 PM 39.1392 -90.5608 45° Northeast 458 527 41,100  Climbing Kansas City Center
Wed 01:29:19 PM 39.2269 -90.4408 47° Northeast 457 526 41,000 -48 Descending Kansas City Center
Wed 01:30:21 PM 39.3172 -90.3236 45° Northeast 458 527 41,000  Level Kansas City Center
Wed 01:31:23 PM 39.4053 -90.2036 46° Northeast 458 527 41,000  Level Kansas City Center
Wed 01:32:25 PM 39.4944 -90.0847 46° Northeast 460 529 41,000  Level Kansas City Center
Wed 01:33:27 PM 39.5839 -89.9642 46° Northeast 461 531 41,000  Level Kansas City Center
Wed 01:34:29 PM 39.6722 -89.8442 46° Northeast 461 531 41,000  Level Kansas City Center
Wed 01:35:31 PM 39.7789 -89.6997 46° Northeast 461 531 41,000 48 Level Kansas City Center
Wed 01:36:33 PM 39.8681 -89.5794 46° Northeast 462 532 41,100  Climbing Kansas City Center
Wed 01:37:35 PM 39.9561 -89.4575 47° Northeast 463 533 41,000 -48 Descending Kansas City Center
Wed 01:38:37 PM 40.0444 -89.3358 46° Northeast 464 534 41,000  Level Kansas City Center
Wed 01:39:39 PM 40.1331 -89.2128 47° Northeast 466 536 41,000  Level Kansas City Center
Wed 01:40:25 PM 40.2031 -89.1158 47° Northeast 464 534 41,000  Level Chicago Center
Wed 01:41:27 PM 40.2900 -88.9914 47° Northeast 464 534 41,000  Level Chicago Center
Wed 01:42:29 PM 40.3981 -88.8419 46° Northeast 469 540 41,000 48 Level Chicago Center
Wed 01:43:31 PM 40.4817 -88.7219 47° Northeast 470 541 41,100  Climbing Chicago Center
Wed 01:44:32 PM 40.5719 -88.5967 46° Northeast 472 543 41,000 -49 Descending Chicago Center
Wed 01:45:34 PM 40.6611 -88.4700 47° Northeast 473 544 41,000  Level Chicago Center
Wed 01:46:36 PM 40.7683 -88.3153 48° Northeast 477 549 41,000  Level Chicago Center
Wed 01:47:37 PM 40.8594 -88.1906 46° Northeast 477 549 41,000  Level Chicago Center
Wed 01:48:39 PM 40.9464 -88.0586 49° Northeast 478 550 41,000  Level Chicago Center
Wed 01:49:41 PM 41.0372 -87.9336 46° Northeast 476 548 41,000  Level Chicago Center
Wed 01:50:42 PM 41.1253 -87.8039 48° Northeast 478 550 41,000  Level Chicago Center
Wed 01:51:44 PM 41.2150 -87.6772 47° Northeast 477 549 41,000  Level Chicago Center
Wed 01:52:46 PM 41.3206 -87.5208 48° Northeast 479 551 41,000  Level Chicago Center
Wed 01:53:47 PM 41.4086 -87.3900 48° Northeast 479 551 41,000 -259 Level Chicago Center
Wed 01:55:51 PM 41.5872 -87.1253 47° Northeast 484 557 40,200 -584 Descending Chicago Center
Wed 01:56:52 PM 41.6833 -87.0006 44° Northeast 483 556 39,200 -1,171 Descending Chicago Center
Wed 01:57:54 PM 41.7894 -86.8828 40° Northeast 495 570 37,800 -1,366 Descending Chicago Center
Wed 01:58:55 PM 41.8964 -86.7092 50° Northeast 506 582 36,400 -1,268 Descending Chicago Center
Wed 01:59:57 PM 41.9833 -86.5814 48° Northeast 510 587 35,200 -1,258 Descending Chicago Center
Wed 02:00:59 PM 42.0756 -86.4347 50° Northeast 514 592 33,800 -1,415 Descending Chicago Center
Wed 02:02:00 PM 42.1700 -86.2919 48° Northeast 509 586 32,300 -1,610 Descending Chicago Center
Wed 02:03:02 PM 42.2611 -86.1444 50° Northeast 511 588 30,500 -1,694 Descending Chicago Center
Wed 02:04:04 PM 42.3661 -85.9850 48° Northeast 509 586 28,800 -1,512 Descending Chicago Center
Wed 02:05:05 PM 42.4539 -85.8433 50° Northeast 499 574 27,400 -1,463 Descending Chicago Center
Wed 02:06:07 PM 42.5392 -85.7039 50° Northeast 489 563 25,800 -1,645 Descending Chicago Center
Wed 02:07:09 PM 42.6256 -85.5700 49° Northeast 481 554 24,000 -1,951 Descending Chicago Center
Wed 02:08:10 PM 42.7233 -85.4081 51° Northeast 468 539 21,800 -2,195 Descending Chicago Center
Wed 02:09:12 PM 42.8078 -85.2783 48° Northeast 463 533 19,500 -2,146 Descending Chicago Center
Wed 02:10:13 PM 42.8858 -85.1486 51° Northeast 451 519 17,400 -2,000 Descending Chicago Center
Wed 02:11:15 PM 42.9625 -85.0258 50° Northeast 435 501 15,400 -1,403 Descending Chicago Center
Wed 02:12:17 PM 43.0322 -84.9100 51° Northeast 410 472 14,500 -976 Descending Chicago Center
Wed 02:13:18 PM 43.0992 -84.8006 50° Northeast 387 445 13,400 -1,171 Descending Chicago Center
Wed 02:14:20 PM 43.1758 -84.6722 51° Northeast 370 426 12,100 -1,073 Descending Chicago Center
Wed 02:15:21 PM 43.2386 -84.5731 49° Northeast 353 406 11,200 -1,024 Descending Chicago Center
Wed 02:16:23 PM 43.2944 -84.4792 51° Northeast 330 380 10,000 -1,220 Descending Chicago Center
Wed 02:17:24 PM 43.3500 -84.3956 48° Northeast 305 351 8,700 -1,659 Descending Chicago Center
Wed 02:18:26 PM 43.4128 -84.3233 40° Northeast 298 343 6,600 -2,157 Descending Chicago Center
Wed 02:19:57 PM 43.5081 -84.2108 41° Northeast 278 320 3,200 -1,451 Descending Cleveland Center
Wed 02:20:59 PM 43.5531 -84.1542 42° Northeast 202 232 2,900 -290 Descending Cleveland Center
Wed 02:22:01 PM 43.5950 -84.1008 43° Northeast 194 223 2,600 -435 Descending Cleveland Center
Wed 02:23:03 PM 43.5983 -84.0422 85° East 162 186 2,000 -532 Descending Cleveland Center
Wed 02:24:05 PM 43.5664 -84.0336 169° South 133 153 1,500 -629 Descending Cleveland Center
Wed 02:25:07 PM 43.5411 -84.0689 225° Southwest 124 143 700 -774 Descending Cleveland Center

Login

Don't have an account? Register now (free) for customized features, flight alerts, and more!